sensor_id;sensor_type;location;lat;lon;timestamp;temperature;humidity
38020;DHT22;23829;51.350;17.286;2023-08-06T00:00:25;28.70;50.00
38020;DHT22;23829;51.350;17.286;2023-08-06T00:03:11;28.80;50.00
38020;DHT22;23829;51.350;17.286;2023-08-06T00:05:41;28.50;50.20
38020;DHT22;23829;51.350;17.286;2023-08-06T00:08:08;28.40;50.70
38020;DHT22;23829;51.350;17.286;2023-08-06T00:10:35;28.60;50.80
38020;DHT22;23829;51.350;17.286;2023-08-06T00:13:01;28.80;50.20
38020;DHT22;23829;51.350;17.286;2023-08-06T00:15:27;28.60;50.30
38020;DHT22;23829;51.350;17.286;2023-08-06T00:17:54;28.10;51.30
38020;DHT22;23829;51.350;17.286;2023-08-06T00:20:20;28.80;50.20
38020;DHT22;23829;51.350;17.286;2023-08-06T00:22:46;29.00;49.50
38020;DHT22;23829;51.350;17.286;2023-08-06T00:25:13;28.70;50.10
38020;DHT22;23829;51.350;17.286;2023-08-06T00:27:39;28.60;50.40
38020;DHT22;23829;51.350;17.286;2023-08-06T00:30:06;29.40;48.80
38020;DHT22;23829;51.350;17.286;2023-08-06T00:32:32;29.00;49.30
38020;DHT22;23829;51.350;17.286;2023-08-06T00:34:59;28.80;49.80
38020;DHT22;23829;51.350;17.286;2023-08-06T00:37:25;29.20;49.20
38020;DHT22;23829;51.350;17.286;2023-08-06T00:39:51;29.10;49.00
38020;DHT22;23829;51.350;17.286;2023-08-06T00:42:18;29.10;49.20
38020;DHT22;23829;51.350;17.286;2023-08-06T00:44:47;29.40;48.70
38020;DHT22;23829;51.350;17.286;2023-08-06T00:47:13;29.20;48.80
38020;DHT22;23829;51.350;17.286;2023-08-06T00:49:40;29.00;49.30
38020;DHT22;23829;51.350;17.286;2023-08-06T00:52:07;29.20;48.90
38020;DHT22;23829;51.350;17.286;2023-08-06T00:54:36;29.00;49.20
38020;DHT22;23829;51.350;17.286;2023-08-06T00:57:03;29.20;49.20
38020;DHT22;23829;51.350;17.286;2023-08-06T00:59:31;29.00;49.30
38020;DHT22;23829;51.350;17.286;2023-08-06T01:01:57;29.10;49.10
38020;DHT22;23829;51.350;17.286;2023-08-06T01:04:24;28.80;49.40
38020;DHT22;23829;51.350;17.286;2023-08-06T01:15:22;28.70;50.00
38020;DHT22;23829;51.350;17.286;2023-08-06T01:17:49;28.20;51.00
38020;DHT22;23829;51.350;17.286;2023-08-06T01:20:16;27.50;52.10
38020;DHT22;23829;51.350;17.286;2023-08-06T01:22:42;27.60;52.70
38020;DHT22;23829;51.350;17.286;2023-08-06T01:25:09;28.20;51.40
38020;DHT22;23829;51.350;17.286;2023-08-06T01:30:14;28.20;51.30
38020;DHT22;23829;51.350;17.286;2023-08-06T01:32:44;28.50;50.60
38020;DHT22;23829;51.350;17.286;2023-08-06T01:35:15;28.70;50.10
38020;DHT22;23829;51.350;17.286;2023-08-06T01:37:41;28.70;50.70
38020;DHT22;23829;51.350;17.286;2023-08-06T01:40:12;28.90;49.80
38020;DHT22;23829;51.350;17.286;2023-08-06T01:42:38;28.70;49.90
38020;DHT22;23829;51.350;17.286;2023-08-06T01:45:09;28.40;50.60
38020;DHT22;23829;51.350;17.286;2023-08-06T01:47:36;27.80;51.40
38020;DHT22;23829;51.350;17.286;2023-08-06T01:50:02;28.40;50.90
38020;DHT22;23829;51.350;17.286;2023-08-06T01:52:29;29.20;49.40
38020;DHT22;23829;51.350;17.286;2023-08-06T01:54:56;28.90;49.50
38020;DHT22;23829;51.350;17.286;2023-08-06T01:57:22;28.50;50.40
38020;DHT22;23829;51.350;17.286;2023-08-06T01:59:48;28.10;51.20
38020;DHT22;23829;51.350;17.286;2023-08-06T02:02:14;28.20;51.10
38020;DHT22;23829;51.350;17.286;2023-08-06T02:04:41;28.30;50.90
38020;DHT22;23829;51.350;17.286;2023-08-06T02:07:07;28.20;51.80
38020;DHT22;23829;51.350;17.286;2023-08-06T02:09:34;28.60;50.40
38020;DHT22;23829;51.350;17.286;2023-08-06T02:12:01;28.80;50.10
38020;DHT22;23829;51.350;17.286;2023-08-06T02:14:29;28.80;49.80
38020;DHT22;23829;51.350;17.286;2023-08-06T02:16:55;28.60;50.40
38020;DHT22;23829;51.350;17.286;2023-08-06T02:19:21;29.00;49.50
38020;DHT22;23829;51.350;17.286;2023-08-06T02:21:47;29.00;49.50
38020;DHT22;23829;51.350;17.286;2023-08-06T02:24:15;28.50;50.20
38020;DHT22;23829;51.350;17.286;2023-08-06T02:26:41;28.50;50.50
38020;DHT22;23829;51.350;17.286;2023-08-06T02:29:07;28.50;50.50
38020;DHT22;23829;51.350;17.286;2023-08-06T02:31:34;28.80;50.00
38020;DHT22;23829;51.350;17.286;2023-08-06T02:34:01;29.40;48.90
38020;DHT22;23829;51.350;17.286;2023-08-06T02:36:27;29.50;48.60
38020;DHT22;23829;51.350;17.286;2023-08-06T02:38:55;29.70;48.30
38020;DHT22;23829;51.350;17.286;2023-08-06T02:41:22;29.50;48.40
38020;DHT22;23829;51.350;17.286;2023-08-06T02:43:50;29.70;48.20
38020;DHT22;23829;51.350;17.286;2023-08-06T02:46:18;29.40;48.60
38020;DHT22;23829;51.350;17.286;2023-08-06T02:48:44;29.50;48.30
38020;DHT22;23829;51.350;17.286;2023-08-06T02:51:12;29.40;48.40
38020;DHT22;23829;51.350;17.286;2023-08-06T02:53:39;29.60;47.90
38020;DHT22;23829;51.350;17.286;2023-08-06T02:56:08;29.70;47.70
38020;DHT22;23829;51.350;17.286;2023-08-06T02:58:47;29.30;48.30
38020;DHT22;23829;51.350;17.286;2023-08-06T03:01:25;29.50;48.00
38020;DHT22;23829;51.350;17.286;2023-08-06T03:03:57;29.30;48.30
38020;DHT22;23829;51.350;17.286;2023-08-06T03:06:30;29.20;48.20
38020;DHT22;23829;51.350;17.286;2023-08-06T03:08:58;29.20;48.40
38020;DHT22;23829;51.350;17.286;2023-08-06T03:11:25;29.30;48.00
38020;DHT22;23829;51.350;17.286;2023-08-06T03:13:57;29.20;48.30
38020;DHT22;23829;51.350;17.286;2023-08-06T03:16:23;28.90;48.80
38020;DHT22;23829;51.350;17.286;2023-08-06T03:18:49;28.70;49.10
38020;DHT22;23829;51.350;17.286;2023-08-06T03:21:16;28.00;50.20
38020;DHT22;23829;51.350;17.286;2023-08-06T03:23:43;28.20;50.20
38020;DHT22;23829;51.350;17.286;2023-08-06T03:26:09;28.50;49.60
38020;DHT22;23829;51.350;17.286;2023-08-06T03:28:37;28.60;49.10
38020;DHT22;23829;51.350;17.286;2023-08-06T03:31:04;28.60;49.70
38020;DHT22;23829;51.350;17.286;2023-08-06T03:33:39;28.60;49.40
38020;DHT22;23829;51.350;17.286;2023-08-06T03:36:10;28.60;49.30
38020;DHT22;23829;51.350;17.286;2023-08-06T03:38:36;29.00;48.30
38020;DHT22;23829;51.350;17.286;2023-08-06T03:41:05;28.60;49.00
38020;DHT22;23829;51.350;17.286;2023-08-06T03:43:32;28.60;49.30
38020;DHT22;23829;51.350;17.286;2023-08-06T03:45:59;28.20;49.50
38020;DHT22;23829;51.350;17.286;2023-08-06T03:48:26;27.80;50.40
38020;DHT22;23829;51.350;17.286;2023-08-06T03:50:52;28.00;50.10
38020;DHT22;23829;51.350;17.286;2023-08-06T03:53:19;28.20;49.70
38020;DHT22;23829;51.350;17.286;2023-08-06T03:55:46;28.80;48.70
38020;DHT22;23829;51.350;17.286;2023-08-06T03:58:12;28.60;48.50
38020;DHT22;23829;51.350;17.286;2023-08-06T04:00:38;28.20;49.40
38020;DHT22;23829;51.350;17.286;2023-08-06T04:03:05;28.30;49.20
38020;DHT22;23829;51.350;17.286;2023-08-06T04:05:32;28.40;50.00
38020;DHT22;23829;51.350;17.286;2023-08-06T04:07:59;28.60;48.90
38020;DHT22;23829;51.350;17.286;2023-08-06T04:10:25;28.40;49.10
38020;DHT22;23829;51.350;17.286;2023-08-06T04:12:52;28.50;49.10
38020;DHT22;23829;51.350;17.286;2023-08-06T04:15:21;28.30;49.30
38020;DHT22;23829;51.350;17.286;2023-08-06T04:17:47;28.50;48.90
38020;DHT22;23829;51.350;17.286;2023-08-06T04:20:14;28.40;49.10
38020;DHT22;23829;51.350;17.286;2023-08-06T04:22:40;28.60;48.70
38020;DHT22;23829;51.350;17.286;2023-08-06T04:25:07;28.60;48.50
38020;DHT22;23829;51.350;17.286;2023-08-06T04:27:34;27.90;49.40
38020;DHT22;23829;51.350;17.286;2023-08-06T04:30:00;27.80;50.10
38020;DHT22;23829;51.350;17.286;2023-08-06T04:32:27;28.10;49.30
38020;DHT22;23829;51.350;17.286;2023-08-06T04:34:55;28.40;48.90
38020;DHT22;23829;51.350;17.286;2023-08-06T04:37:23;28.20;48.90
38020;DHT22;23829;51.350;17.286;2023-08-06T04:39:49;27.90;49.70
38020;DHT22;23829;51.350;17.286;2023-08-06T04:42:16;27.50;50.40
38020;DHT22;23829;51.350;17.286;2023-08-06T04:44:42;27.50;50.20
38020;DHT22;23829;51.350;17.286;2023-08-06T04:47:08;28.00;49.90
38020;DHT22;23829;51.350;17.286;2023-08-06T04:49:34;27.90;49.50
38020;DHT22;23829;51.350;17.286;2023-08-06T04:52:01;28.00;49.60
38020;DHT22;23829;51.350;17.286;2023-08-06T04:54:27;28.00;49.40
38020;DHT22;23829;51.350;17.286;2023-08-06T04:56:53;27.50;50.00
38020;DHT22;23829;51.350;17.286;2023-08-06T04:59:19;27.40;50.60
38020;DHT22;23829;51.350;17.286;2023-08-06T05:01:46;27.70;50.20
38020;DHT22;23829;51.350;17.286;2023-08-06T05:04:12;28.00;49.70
38020;DHT22;23829;51.350;17.286;2023-08-06T05:06:38;28.10;49.20
38020;DHT22;23829;51.350;17.286;2023-08-06T05:09:05;28.20;48.90
38020;DHT22;23829;51.350;17.286;2023-08-06T05:11:32;28.40;48.70
38020;DHT22;23829;51.350;17.286;2023-08-06T05:13:58;28.40;48.90
38020;DHT22;23829;51.350;17.286;2023-08-06T05:16:25;28.40;48.80
38020;DHT22;23829;51.350;17.286;2023-08-06T05:18:51;28.40;48.70
38020;DHT22;23829;51.350;17.286;2023-08-06T05:21:17;27.80;49.30
38020;DHT22;23829;51.350;17.286;2023-08-06T05:23:43;28.30;48.80
38020;DHT22;23829;51.350;17.286;2023-08-06T05:26:10;27.70;49.90
38020;DHT22;23829;51.350;17.286;2023-08-06T05:28:36;27.60;50.30
38020;DHT22;23829;51.350;17.286;2023-08-06T05:31:04;28.10;49.30
38020;DHT22;23829;51.350;17.286;2023-08-06T05:33:31;28.20;49.00
38020;DHT22;23829;51.350;17.286;2023-08-06T05:35:57;28.30;48.60
38020;DHT22;23829;51.350;17.286;2023-08-06T05:38:23;28.10;49.10
38020;DHT22;23829;51.350;17.286;2023-08-06T05:40:50;27.60;49.80
38020;DHT22;23829;51.350;17.286;2023-08-06T05:43:16;27.70;49.90
38020;DHT22;23829;51.350;17.286;2023-08-06T05:45:46;27.50;50.20
38020;DHT22;23829;51.350;17.286;2023-08-06T05:48:13;27.90;49.20
38020;DHT22;23829;51.350;17.286;2023-08-06T05:50:39;27.40;50.00
38020;DHT22;23829;51.350;17.286;2023-08-06T05:53:05;27.10;50.70
38020;DHT22;23829;51.350;17.286;2023-08-06T05:55:32;27.20;50.90
38020;DHT22;23829;51.350;17.286;2023-08-06T05:57:59;27.40;50.40
38020;DHT22;23829;51.350;17.286;2023-08-06T06:00:25;27.20;50.80
38020;DHT22;23829;51.350;17.286;2023-08-06T06:02:51;26.80;51.40
38020;DHT22;23829;51.350;17.286;2023-08-06T06:05:18;27.20;51.10
38020;DHT22;23829;51.350;17.286;2023-08-06T06:07:44;27.60;50.60
38020;DHT22;23829;51.350;17.286;2023-08-06T06:10:10;27.60;49.90
38020;DHT22;23829;51.350;17.286;2023-08-06T06:12:38;27.60;50.00
38020;DHT22;23829;51.350;17.286;2023-08-06T06:15:05;27.40;50.30
38020;DHT22;23829;51.350;17.286;2023-08-06T06:17:31;27.60;50.10
38020;DHT22;23829;51.350;17.286;2023-08-06T06:19:58;27.40;50.10
38020;DHT22;23829;51.350;17.286;2023-08-06T06:22:24;27.40;50.60
38020;DHT22;23829;51.350;17.286;2023-08-06T06:24:51;27.50;49.80
38020;DHT22;23829;51.350;17.286;2023-08-06T06:27:17;27.40;50.20
38020;DHT22;23829;51.350;17.286;2023-08-06T06:29:44;27.60;50.10
38020;DHT22;23829;51.350;17.286;2023-08-06T06:32:10;27.60;49.80
38020;DHT22;23829;51.350;17.286;2023-08-06T06:34:36;27.70;49.50
38020;DHT22;23829;51.350;17.286;2023-08-06T06:37:03;27.80;49.10
38020;DHT22;23829;51.350;17.286;2023-08-06T06:39:29;27.80;49.50
38020;DHT22;23829;51.350;17.286;2023-08-06T06:41:55;27.20;50.30
38020;DHT22;23829;51.350;17.286;2023-08-06T06:44:30;26.60;51.50
38020;DHT22;23829;51.350;17.286;2023-08-06T06:46:56;26.10;52.50
38020;DHT22;23829;51.350;17.286;2023-08-06T06:49:23;26.50;52.30
38020;DHT22;23829;51.350;17.286;2023-08-06T06:51:49;27.20;50.90
38020;DHT22;23829;51.350;17.286;2023-08-06T06:54:16;26.80;51.40
38020;DHT22;23829;51.350;17.286;2023-08-06T06:56:42;27.40;50.80
38020;DHT22;23829;51.350;17.286;2023-08-06T06:59:09;27.60;49.90
38020;DHT22;23829;51.350;17.286;2023-08-06T07:01:35;27.10;50.60
38020;DHT22;23829;51.350;17.286;2023-08-06T07:04:01;27.00;50.90
38020;DHT22;23829;51.350;17.286;2023-08-06T07:06:31;27.40;50.20
38020;DHT22;23829;51.350;17.286;2023-08-06T07:08:58;27.10;50.70
38020;DHT22;23829;51.350;17.286;2023-08-06T07:11:24;27.30;50.30
38020;DHT22;23829;51.350;17.286;2023-08-06T07:13:56;27.70;49.80
38020;DHT22;23829;51.350;17.286;2023-08-06T07:16:23;27.70;49.60
38020;DHT22;23829;51.350;17.286;2023-08-06T07:18:52;27.50;50.20
38020;DHT22;23829;51.350;17.286;2023-08-06T07:21:19;27.50;49.80
38020;DHT22;23829;51.350;17.286;2023-08-06T07:23:46;27.40;50.00
38020;DHT22;23829;51.350;17.286;2023-08-06T07:26:12;27.90;49.10
38020;DHT22;23829;51.350;17.286;2023-08-06T07:28:39;27.40;49.80
38020;DHT22;23829;51.350;17.286;2023-08-06T07:31:05;27.50;50.10
38020;DHT22;23829;51.350;17.286;2023-08-06T07:33:31;27.40;49.90
38020;DHT22;23829;51.350;17.286;2023-08-06T07:35:58;27.30;50.70
38020;DHT22;23829;51.350;17.286;2023-08-06T07:38:24;27.30;50.50
38020;DHT22;23829;51.350;17.286;2023-08-06T07:40:52;27.80;49.70
38020;DHT22;23829;51.350;17.286;2023-08-06T07:43:19;28.00;49.10
38020;DHT22;23829;51.350;17.286;2023-08-06T07:45:45;27.90;48.80
38020;DHT22;23829;51.350;17.286;2023-08-06T07:48:12;28.10;48.80
38020;DHT22;23829;51.350;17.286;2023-08-06T07:50:38;28.20;48.60
38020;DHT22;23829;51.350;17.286;2023-08-06T07:53:05;28.50;48.00
38020;DHT22;23829;51.350;17.286;2023-08-06T07:55:31;28.20;48.20
38020;DHT22;23829;51.350;17.286;2023-08-06T07:58:00;28.10;48.60
38020;DHT22;23829;51.350;17.286;2023-08-06T08:00:26;27.80;49.20
38020;DHT22;23829;51.350;17.286;2023-08-06T08:02:53;27.80;49.10
38020;DHT22;23829;51.350;17.286;2023-08-06T08:05:19;27.80;49.20
38020;DHT22;23829;51.350;17.286;2023-08-06T08:07:46;27.90;49.00
38020;DHT22;23829;51.350;17.286;2023-08-06T08:10:12;27.90;48.90
38020;DHT22;23829;51.350;17.286;2023-08-06T08:12:39;27.90;49.10
38020;DHT22;23829;51.350;17.286;2023-08-06T08:15:05;27.90;49.00
38020;DHT22;23829;51.350;17.286;2023-08-06T08:17:32;28.40;48.50
38020;DHT22;23829;51.350;17.286;2023-08-06T08:19:58;27.90;49.00
38020;DHT22;23829;51.350;17.286;2023-08-06T08:22:26;28.10;48.60
38020;DHT22;23829;51.350;17.286;2023-08-06T08:24:52;28.30;48.40
38020;DHT22;23829;51.350;17.286;2023-08-06T08:27:19;28.20;48.70
38020;DHT22;23829;51.350;17.286;2023-08-06T08:29:45;28.00;48.80
38020;DHT22;23829;51.350;17.286;2023-08-06T08:32:11;28.10;49.10
38020;DHT22;23829;51.350;17.286;2023-08-06T08:34:38;28.10;48.90
38020;DHT22;23829;51.350;17.286;2023-08-06T08:37:04;28.20;48.70
38020;DHT22;23829;51.350;17.286;2023-08-06T08:39:32;27.90;49.00
38020;DHT22;23829;51.350;17.286;2023-08-06T08:41:58;28.00;49.40
38020;DHT22;23829;51.350;17.286;2023-08-06T08:44:25;28.50;48.70
38020;DHT22;23829;51.350;17.286;2023-08-06T08:46:55;28.30;48.80
38020;DHT22;23829;51.350;17.286;2023-08-06T08:49:21;28.10;49.30
38020;DHT22;23829;51.350;17.286;2023-08-06T08:51:51;28.10;49.40
38020;DHT22;23829;51.350;17.286;2023-08-06T08:54:20;27.90;49.50
38020;DHT22;23829;51.350;17.286;2023-08-06T08:56:49;28.10;49.50
38020;DHT22;23829;51.350;17.286;2023-08-06T08:59:16;28.10;49.30
38020;DHT22;23829;51.350;17.286;2023-08-06T09:01:44;28.40;48.70
38020;DHT22;23829;51.350;17.286;2023-08-06T09:04:16;28.00;49.70
38020;DHT22;23829;51.350;17.286;2023-08-06T09:06:49;27.80;49.90
38020;DHT22;23829;51.350;17.286;2023-08-06T09:09:22;27.80;50.10
38020;DHT22;23829;51.350;17.286;2023-08-06T09:11:51;28.00;49.70
38020;DHT22;23829;51.350;17.286;2023-08-06T09:14:18;28.00;49.70
38020;DHT22;23829;51.350;17.286;2023-08-06T09:16:45;27.70;50.00
38020;DHT22;23829;51.350;17.286;2023-08-06T09:19:13;27.40;50.80
38020;DHT22;23829;51.350;17.286;2023-08-06T09:21:42;27.60;50.70
38020;DHT22;23829;51.350;17.286;2023-08-06T09:24:09;27.70;50.10
38020;DHT22;23829;51.350;17.286;2023-08-06T09:26:37;27.70;50.70
38020;DHT22;23829;51.350;17.286;2023-08-06T09:29:08;28.00;49.70
38020;DHT22;23829;51.350;17.286;2023-08-06T09:31:45;27.70;50.20
38020;DHT22;23829;51.350;17.286;2023-08-06T09:34:19;27.90;49.90
38020;DHT22;23829;51.350;17.286;2023-08-06T09:36:50;27.90;50.10
38020;DHT22;23829;51.350;17.286;2023-08-06T09:39:26;28.10;49.50
38020;DHT22;23829;51.350;17.286;2023-08-06T09:41:59;27.90;49.60
38020;DHT22;23829;51.350;17.286;2023-08-06T09:44:27;27.70;50.30
38020;DHT22;23829;51.350;17.286;2023-08-06T09:46:59;28.10;49.90
38020;DHT22;23829;51.350;17.286;2023-08-06T09:52:00;28.30;49.10
38020;DHT22;23829;51.350;17.286;2023-08-06T09:54:28;28.50;48.70
38020;DHT22;23829;51.350;17.286;2023-08-06T09:56:57;28.40;48.50
38020;DHT22;23829;51.350;17.286;2023-08-06T09:59:24;28.30;48.80
38020;DHT22;23829;51.350;17.286;2023-08-06T10:01:51;28.40;48.90
38020;DHT22;23829;51.350;17.286;2023-08-06T10:04:20;28.90;48.00
38020;DHT22;23829;51.350;17.286;2023-08-06T10:06:47;28.80;48.00
38020;DHT22;23829;51.350;17.286;2023-08-06T10:09:14;29.20;47.20
38020;DHT22;23829;51.350;17.286;2023-08-06T10:11:42;28.90;47.40
38020;DHT22;23829;51.350;17.286;2023-08-06T10:14:16;28.90;47.70
38020;DHT22;23829;51.350;17.286;2023-08-06T10:16:44;28.50;47.80
38020;DHT22;23829;51.350;17.286;2023-08-06T10:19:12;28.80;48.10
38020;DHT22;23829;51.350;17.286;2023-08-06T10:21:40;28.90;47.60
38020;DHT22;23829;51.350;17.286;2023-08-06T10:24:13;28.70;47.90
38020;DHT22;23829;51.350;17.286;2023-08-06T10:26:41;28.90;47.70
38020;DHT22;23829;51.350;17.286;2023-08-06T10:29:36;28.70;47.90
38020;DHT22;23829;51.350;17.286;2023-08-06T10:32:03;28.90;47.50
38020;DHT22;23829;51.350;17.286;2023-08-06T10:34:58;29.00;47.20
38020;DHT22;23829;51.350;17.286;2023-08-06T10:37:36;28.80;47.50
38020;DHT22;23829;51.350;17.286;2023-08-06T10:40:06;28.70;48.00
38020;DHT22;23829;51.350;17.286;2023-08-06T10:42:33;28.70;48.10
38020;DHT22;23829;51.350;17.286;2023-08-06T10:45:26;28.60;48.30
38020;DHT22;23829;51.350;17.286;2023-08-06T10:47:57;28.20;49.00
38020;DHT22;23829;51.350;17.286;2023-08-06T10:50:24;28.30;49.00
38020;DHT22;23829;51.350;17.286;2023-08-06T10:52:51;27.90;49.70
38020;DHT22;23829;51.350;17.286;2023-08-06T10:55:24;28.40;49.30
38020;DHT22;23829;51.350;17.286;2023-08-06T10:57:53;28.40;49.00
38020;DHT22;23829;51.350;17.286;2023-08-06T11:00:22;28.60;49.00
38020;DHT22;23829;51.350;17.286;2023-08-06T11:02:53;28.30;49.60
38020;DHT22;23829;51.350;17.286;2023-08-06T11:05:21;28.00;49.90
38020;DHT22;23829;51.350;17.286;2023-08-06T11:07:50;28.20;50.20
38020;DHT22;23829;51.350;17.286;2023-08-06T11:10:18;28.30;49.90
38020;DHT22;23829;51.350;17.286;2023-08-06T11:12:45;28.50;49.60
38020;DHT22;23829;51.350;17.286;2023-08-06T11:15:11;28.40;49.50
38020;DHT22;23829;51.350;17.286;2023-08-06T11:17:40;28.10;50.00
38020;DHT22;23829;51.350;17.286;2023-08-06T11:20:07;28.50;49.70
38020;DHT22;23829;51.350;17.286;2023-08-06T11:22:36;28.50;49.20
38020;DHT22;23829;51.350;17.286;2023-08-06T11:25:02;28.60;49.20
38020;DHT22;23829;51.350;17.286;2023-08-06T11:27:29;28.60;49.10
38020;DHT22;23829;51.350;17.286;2023-08-06T11:29:55;29.00;48.20
38020;DHT22;23829;51.350;17.286;2023-08-06T11:32:22;27.90;49.50
38020;DHT22;23829;51.350;17.286;2023-08-06T11:34:49;28.20;50.30
38020;DHT22;23829;51.350;17.286;2023-08-06T11:37:17;27.30;51.40
38020;DHT22;23829;51.350;17.286;2023-08-06T11:39:47;27.80;51.00
38020;DHT22;23829;51.350;17.286;2023-08-06T11:42:17;28.00;50.50
38020;DHT22;23829;51.350;17.286;2023-08-06T11:44:43;28.00;50.60
38020;DHT22;23829;51.350;17.286;2023-08-06T11:47:16;28.20;50.30
38020;DHT22;23829;51.350;17.286;2023-08-06T11:49:47;28.50;49.90
38020;DHT22;23829;51.350;17.286;2023-08-06T11:52:22;28.30;49.80
38020;DHT22;23829;51.350;17.286;2023-08-06T11:55:03;28.30;50.20
38020;DHT22;23829;51.350;17.286;2023-08-06T11:57:33;28.40;49.60
38020;DHT22;23829;51.350;17.286;2023-08-06T12:00:07;28.80;49.00
38020;DHT22;23829;51.350;17.286;2023-08-06T12:02:45;28.60;49.00
38020;DHT22;23829;51.350;17.286;2023-08-06T12:05:15;28.80;48.80
38020;DHT22;23829;51.350;17.286;2023-08-06T12:07:54;28.70;49.10
38020;DHT22;23829;51.350;17.286;2023-08-06T12:10:22;28.80;48.60
38020;DHT22;23829;51.350;17.286;2023-08-06T12:12:50;28.40;49.50
38020;DHT22;23829;51.350;17.286;2023-08-06T12:15:16;28.50;49.40
38020;DHT22;23829;51.350;17.286;2023-08-06T12:17:43;28.70;49.20
38020;DHT22;23829;51.350;17.286;2023-08-06T12:20:10;28.60;48.90
38020;DHT22;23829;51.350;17.286;2023-08-06T12:22:37;28.40;49.20
38020;DHT22;23829;51.350;17.286;2023-08-06T12:25:08;28.60;49.10
38020;DHT22;23829;51.350;17.286;2023-08-06T12:27:39;28.50;49.90
38020;DHT22;23829;51.350;17.286;2023-08-06T12:30:06;28.70;49.10
38020;DHT22;23829;51.350;17.286;2023-08-06T12:32:34;28.50;49.70
38020;DHT22;23829;51.350;17.286;2023-08-06T12:35:01;28.50;49.80
38020;DHT22;23829;51.350;17.286;2023-08-06T12:37:28;28.80;49.00
38020;DHT22;23829;51.350;17.286;2023-08-06T12:39:54;28.60;49.00
38020;DHT22;23829;51.350;17.286;2023-08-06T12:42:21;29.10;48.60
38020;DHT22;23829;51.350;17.286;2023-08-06T12:44:50;28.90;48.40
38020;DHT22;23829;51.350;17.286;2023-08-06T12:47:17;28.90;48.70
38020;DHT22;23829;51.350;17.286;2023-08-06T12:49:44;28.90;48.50
38020;DHT22;23829;51.350;17.286;2023-08-06T12:52:10;29.50;47.90
38020;DHT22;23829;51.350;17.286;2023-08-06T12:54:38;29.30;48.10
38020;DHT22;23829;51.350;17.286;2023-08-06T12:57:05;29.10;48.10
38020;DHT22;23829;51.350;17.286;2023-08-06T12:59:32;28.90;49.00
38020;DHT22;23829;51.350;17.286;2023-08-06T13:02:03;29.00;48.30
38020;DHT22;23829;51.350;17.286;2023-08-06T13:04:29;28.50;49.70
38020;DHT22;23829;51.350;17.286;2023-08-06T13:06:56;29.00;49.00
38020;DHT22;23829;51.350;17.286;2023-08-06T13:09:23;29.30;48.20
38020;DHT22;23829;51.350;17.286;2023-08-06T13:11:50;29.00;48.50
38020;DHT22;23829;51.350;17.286;2023-08-06T13:14:16;29.00;48.80
38020;DHT22;23829;51.350;17.286;2023-08-06T13:16:44;29.20;48.40
38020;DHT22;23829;51.350;17.286;2023-08-06T13:19:11;29.30;48.30
38020;DHT22;23829;51.350;17.286;2023-08-06T13:24:08;28.80;49.00
38020;DHT22;23829;51.350;17.286;2023-08-06T13:26:35;28.80;49.40
38020;DHT22;23829;51.350;17.286;2023-08-06T13:29:02;28.80;49.10
38020;DHT22;23829;51.350;17.286;2023-08-06T13:31:30;29.30;48.60
38020;DHT22;23829;51.350;17.286;2023-08-06T13:33:57;29.00;48.60
38020;DHT22;23829;51.350;17.286;2023-08-06T13:36:28;29.00;48.70
38020;DHT22;23829;51.350;17.286;2023-08-06T13:38:54;28.80;49.10
38020;DHT22;23829;51.350;17.286;2023-08-06T13:41:22;29.20;48.50
38020;DHT22;23829;51.350;17.286;2023-08-06T13:43:51;29.30;48.30
38020;DHT22;23829;51.350;17.286;2023-08-06T13:46:19;29.40;48.10
38020;DHT22;23829;51.350;17.286;2023-08-06T13:48:47;29.40;47.90
38020;DHT22;23829;51.350;17.286;2023-08-06T13:51:15;29.20;48.50
38020;DHT22;23829;51.350;17.286;2023-08-06T13:53:42;29.10;48.90
38020;DHT22;23829;51.350;17.286;2023-08-06T13:56:09;29.20;48.50
38020;DHT22;23829;51.350;17.286;2023-08-06T13:58:38;29.30;48.30
38020;DHT22;23829;51.350;17.286;2023-08-06T14:01:06;29.50;48.00
38020;DHT22;23829;51.350;17.286;2023-08-06T14:03:33;29.60;48.10
38020;DHT22;23829;51.350;17.286;2023-08-06T14:06:03;29.40;48.50
38020;DHT22;23829;51.350;17.286;2023-08-06T14:08:32;29.30;48.30
38020;DHT22;23829;51.350;17.286;2023-08-06T14:10:59;29.00;48.60
38020;DHT22;23829;51.350;17.286;2023-08-06T14:13:25;29.20;49.00
38020;DHT22;23829;51.350;17.286;2023-08-06T14:15:52;29.20;48.70
38020;DHT22;23829;51.350;17.286;2023-08-06T14:18:18;29.30;48.80
38020;DHT22;23829;51.350;17.286;2023-08-06T14:20:45;29.50;48.10
38020;DHT22;23829;51.350;17.286;2023-08-06T14:23:11;29.40;48.00
38020;DHT22;23829;51.350;17.286;2023-08-06T14:25:38;29.40;48.10
38020;DHT22;23829;51.350;17.286;2023-08-06T14:28:05;29.40;48.10
38020;DHT22;23829;51.350;17.286;2023-08-06T14:30:33;29.60;47.80
38020;DHT22;23829;51.350;17.286;2023-08-06T14:33:00;29.40;47.80
38020;DHT22;23829;51.350;17.286;2023-08-06T14:35:27;29.10;48.70
38020;DHT22;23829;51.350;17.286;2023-08-06T14:37:54;29.30;48.20
38020;DHT22;23829;51.350;17.286;2023-08-06T14:40:22;29.40;48.00
38020;DHT22;23829;51.350;17.286;2023-08-06T14:42:48;29.10;48.50
38020;DHT22;23829;51.350;17.286;2023-08-06T14:45:16;29.00;48.20
38020;DHT22;23829;51.350;17.286;2023-08-06T14:47:42;28.80;48.80
38020;DHT22;23829;51.350;17.286;2023-08-06T14:50:09;28.60;49.00
38020;DHT22;23829;51.350;17.286;2023-08-06T14:52:36;28.80;49.10
38020;DHT22;23829;51.350;17.286;2023-08-06T14:55:05;28.80;48.30
38020;DHT22;23829;51.350;17.286;2023-08-06T14:57:35;28.50;49.20
38020;DHT22;23829;51.350;17.286;2023-08-06T15:00:11;28.60;49.80
38020;DHT22;23829;51.350;17.286;2023-08-06T15:02:45;28.40;49.40
38020;DHT22;23829;51.350;17.286;2023-08-06T15:05:26;28.60;49.60
38020;DHT22;23829;51.350;17.286;2023-08-06T15:07:52;28.60;49.10
38020;DHT22;23829;51.350;17.286;2023-08-06T15:10:19;28.50;49.30
38020;DHT22;23829;51.350;17.286;2023-08-06T15:12:46;28.50;49.80
38020;DHT22;23829;51.350;17.286;2023-08-06T15:15:15;28.20;50.10
38020;DHT22;23829;51.350;17.286;2023-08-06T15:17:42;28.60;49.40
38020;DHT22;23829;51.350;17.286;2023-08-06T15:20:09;28.30;49.70
38020;DHT22;23829;51.350;17.286;2023-08-06T15:22:36;28.40;49.90
38020;DHT22;23829;51.350;17.286;2023-08-06T15:25:03;28.50;50.20
38020;DHT22;23829;51.350;17.286;2023-08-06T15:27:30;28.20;49.90
38020;DHT22;23829;51.350;17.286;2023-08-06T15:29:58;28.30;50.10
38020;DHT22;23829;51.350;17.286;2023-08-06T15:32:24;28.40;49.70
38020;DHT22;23829;51.350;17.286;2023-08-06T15:34:52;28.60;49.50